Time;durP1;ratioP1;P1;durP2;ratioP2;P2;SDS_P1;SDS_P2;PMS_P1;PMS_P2;Temp;Humidity;BMP_temperature;BMP_pressure;BME280_temperature;BME280_humidity;BME280_pressure;Samples;Min_cycle;Max_cycle;Signal;HPM_P1;HPM_P2
2023/03/22 00:00:29;;;;;;;;;;;;;;;16.89;49.21;101216.38;5066523;28;19920;-88
2023/03/22 00:02:55;;;;;;;;;;;;;;;16.87;49.27;101218.50;5068118;28;19920;-86
2023/03/22 00:05:21;;;;;;;;;;;;;;;16.83;49.37;101220.16;5064744;28;19927;-86
2023/03/22 00:07:49;;;;;;;;;;;;;;;16.79;49.41;101209.09;5064609;28;19917;-86
2023/03/22 00:10:15;;;;;;;;;;;;;;;16.79;49.49;101211.00;5064539;28;20059;-86
2023/03/22 00:12:40;;;;;;;;;;;;;;;16.76;49.67;101204.25;5067017;28;20290;-86
2023/03/22 00:15:06;;;;;;;;;;;;;;;16.76;49.75;101208.84;5066782;28;19924;-86
2023/03/22 00:17:31;;;;;;;;;;;;;;;16.75;49.74;101209.94;5062275;28;20026;-86
2023/03/22 00:19:57;;;;;;;;;;;;;;;16.74;49.92;101200.19;5068292;28;19924;-86
2023/03/22 00:22:23;;;;;;;;;;;;;;;16.75;49.76;101189.09;5063714;28;19923;-86
2023/03/22 00:24:48;;;;;;;;;;;;;;;16.76;49.70;101193.41;5062484;28;19928;-86
2023/03/22 00:27:13;;;;;;;;;;;;;;;16.76;49.60;101173.66;5067256;28;20294;-86
2023/03/22 00:29:39;;;;;;;;;;;;;;;16.75;49.79;101186.38;5071046;28;19924;-86
2023/03/22 00:32:04;;;;;;;;;;;;;;;16.75;50.07;101172.88;5067954;28;19921;-86
2023/03/22 00:34:31;;;;;;;;;;;;;;;16.76;49.90;101182.59;5066664;28;20011;-86
2023/03/22 00:36:56;;;;;;;;;;;;;;;16.77;50.14;101183.41;5069686;28;19920;-87
2023/03/22 00:39:21;;;;;;;;;;;;;;;16.78;49.90;101179.59;5070847;28;20158;-86
2023/03/22 00:41:47;;;;;;;;;;;;;;;16.78;50.08;101179.59;5069802;28;20378;-86
2023/03/22 00:44:12;;;;;;;;;;;;;;;16.80;50.17;101182.84;5068374;28;19916;-87
2023/03/22 00:46:38;;;;;;;;;;;;;;;16.83;50.13;101182.28;5070420;28;19921;-86
2023/03/22 00:49:03;;;;;;;;;;;;;;;16.83;50.24;101185.78;5070224;28;19916;-86
2023/03/22 00:51:28;;;;;;;;;;;;;;;16.85;50.34;101193.63;5069826;28;20381;-86
2023/03/22 00:53:54;;;;;;;;;;;;;;;16.84;50.20;101184.72;5068868;28;20000;-86
2023/03/22 00:56:21;;;;;;;;;;;;;;;16.85;50.21;101188.22;5068347;28;19920;-86
2023/03/22 00:58:47;;;;;;;;;;;;;;;16.86;50.17;101179.00;5074315;28;19923;-87
2023/03/22 01:01:13;;;;;;;;;;;;;;;16.87;50.10;101172.50;5069565;28;19917;-86
2023/03/22 01:03:39;;;;;;;;;;;;;;;16.88;50.29;101168.75;5067957;28;19931;-86
2023/03/22 01:06:04;;;;;;;;;;;;;;;16.89;50.22;101173.06;5063407;28;19920;-87
2023/03/22 01:08:33;;;;;;;;;;;;;;;16.87;50.01;101167.09;5063300;28;19928;-86
2023/03/22 01:10:59;;;;;;;;;;;;;;;16.85;50.15;101171.97;5066108;28;20283;-86
2023/03/22 01:13:24;;;;;;;;;;;;;;;16.85;50.35;101161.16;5067669;28;20444;-86
2023/03/22 01:15:50;;;;;;;;;;;;;;;16.84;50.35;101163.06;5072858;28;19916;-86
2023/03/22 01:18:16;;;;;;;;;;;;;;;16.84;50.46;101162.25;5068387;28;19923;-86
2023/03/22 01:20:41;;;;;;;;;;;;;;;16.84;50.40;101162.25;5068819;28;19927;-87
2023/03/22 01:23:06;;;;;;;;;;;;;;;16.87;50.45;101156.28;5066360;28;19917;-86
2023/03/22 01:25:32;;;;;;;;;;;;;;;16.88;50.47;101147.91;5065164;28;19921;-86
2023/03/22 01:27:57;;;;;;;;;;;;;;;16.91;50.54;101149.22;5071319;28;19923;-86
2023/03/22 01:30:23;;;;;;;;;;;;;;;16.94;50.31;101153.28;5070309;28;20011;-86
2023/03/22 01:32:48;;;;;;;;;;;;;;;16.95;50.57;101166.53;5060083;28;19920;-87
2023/03/22 01:35:14;;;;;;;;;;;;;;;16.95;50.52;101163.81;5061186;28;19920;-86
2023/03/22 01:37:40;;;;;;;;;;;;;;;16.98;50.42;101162.44;5066092;28;19935;-86
2023/03/22 01:40:06;;;;;;;;;;;;;;;17.00;50.40;101155.66;5064675;28;19924;-87
2023/03/22 01:42:31;;;;;;;;;;;;;;;17.00;50.37;101155.66;5070302;28;19960;-86
2023/03/22 01:45:11;;;;;;;;;;;;;;;17.02;50.45;101147.25;5072939;28;20028;-86
2023/03/22 01:47:37;;;;;;;;;;;;;;;17.02;50.26;101147.25;5071340;28;20708;-86
2023/03/22 01:50:03;;;;;;;;;;;;;;;17.02;50.01;101142.63;5069028;28;19920;-86
2023/03/22 01:52:29;;;;;;;;;;;;;;;17.00;50.12;101138.59;5071238;28;22002;-86
2023/03/22 01:54:54;;;;;;;;;;;;;;;16.95;50.19;101142.16;5069288;28;20394;-86
2023/03/22 01:57:20;;;;;;;;;;;;;;;16.91;50.13;101135.69;5069352;28;20334;-86
2023/03/22 01:59:46;;;;;;;;;;;;;;;16.90;50.21;101137.59;5071333;28;19980;-86
2023/03/22 02:02:13;;;;;;;;;;;;;;;16.89;50.32;101132.47;5066289;28;19928;-86
2023/03/22 02:04:39;;;;;;;;;;;;;;;16.85;50.15;101134.91;5072489;28;20214;-86
2023/03/22 02:07:09;;;;;;;;;;;;;;;16.83;50.35;101130.84;5066173;28;20003;-87
2023/03/22 02:09:41;;;;;;;;;;;;;;;16.79;50.42;101121.69;5062094;28;19963;-87
2023/03/22 02:12:15;;;;;;;;;;;;;;;16.78;50.31;101120.88;5070282;28;20491;-87
2023/03/22 02:15:00;;;;;;;;;;;;;;;16.78;50.02;101120.06;5070311;28;19928;-86
2023/03/22 02:17:26;;;;;;;;;;;;;;;16.68;50.26;101109.31;5061959;28;20282;-86
2023/03/22 02:20:10;;;;;;;;;;;;;;;16.62;50.35;101100.38;5067717;28;19916;-86
2023/03/22 02:23:04;;;;;;;;;;;;;;;16.58;50.18;101100.16;5070567;28;19920;-86
2023/03/22 02:25:48;;;;;;;;;;;;;;;16.55;50.20;101095.31;5008731;28;19969;-86
2023/03/22 02:28:30;;;;;;;;;;;;;;;16.51;50.46;101096.13;5066216;28;20381;-86
2023/03/22 02:31:14;;;;;;;;;;;;;;;16.52;50.69;101100.47;5069967;28;19961;-87
2023/03/22 02:33:42;;;;;;;;;;;;;;;16.50;50.01;101087.19;5056841;28;19932;-86
2023/03/22 02:36:29;;;;;;;;;;;;;;;16.42;49.85;101090.50;5070479;28;20295;-86
2023/03/22 02:39:13;;;;;;;;;;;;;;;16.30;50.29;101100.81;5065691;28;19916;-86
2023/03/22 02:41:55;;;;;;;;;;;;;;;16.26;50.37;101091.66;5070933;28;19920;-86
2023/03/22 02:44:25;;;;;;;;;;;;;;;16.21;50.33;101097.09;5072766;28;19952;-87
2023/03/22 02:46:56;;;;;;;;;;;;;;;16.22;50.57;101101.41;5073343;28;19918;-86
2023/03/22 02:49:33;;;;;;;;;;;;;;;16.24;50.58;101096.53;5069247;28;19975;-86
2023/03/22 02:52:01;;;;;;;;;;;;;;;16.21;50.71;101088.97;5072674;28;19954;-86
2023/03/22 02:54:27;;;;;;;;;;;;;;;16.25;50.62;101090.03;5072525;28;19927;-85
2023/03/22 02:56:56;;;;;;;;;;;;;;;16.23;50.74;101090.31;5067802;28;20281;-86
2023/03/22 02:59:23;;;;;;;;;;;;;;;16.24;50.73;101093.81;5078513;28;19939;-86
2023/03/22 03:01:51;;;;;;;;;;;;;;;16.23;50.54;101084.09;5074434;28;19917;-86
2023/03/22 03:04:18;;;;;;;;;;;;;;;16.21;50.73;101083.56;5073230;28;19916;-86
2023/03/22 03:06:45;;;;;;;;;;;;;;;16.24;50.85;101080.31;5072392;28;19959;-87
2023/03/22 03:09:12;;;;;;;;;;;;;;;16.25;50.76;101071.09;5069284;28;19955;-87
2023/03/22 03:11:37;;;;;;;;;;;;;;;16.26;50.83;101076.25;5069566;28;20671;-87
2023/03/22 03:14:06;;;;;;;;;;;;;;;16.28;50.56;101081.38;5071021;28;19974;-86
2023/03/22 03:16:35;;;;;;;;;;;;;;;16.27;50.64;101082.44;5069967;28;19966;-87
2023/03/22 03:19:00;;;;;;;;;;;;;;;16.23;50.71;101076.00;5070534;28;21294;-86
2023/03/22 03:21:41;;;;;;;;;;;;;;;16.22;50.70;101082.47;5072669;28;19928;-86
2023/03/22 03:24:06;;;;;;;;;;;;;;;16.23;50.70;101086.81;5073872;28;19928;-86
2023/03/22 03:26:50;;;;;;;;;;;;;;;16.22;50.83;101074.38;5068077;28;19966;-87
2023/03/22 03:29:25;;;;;;;;;;;;;;;16.21;50.85;101084.38;5065869;28;19917;-87
2023/03/22 03:31:53;;;;;;;;;;;;;;;16.21;50.79;101083.56;5067703;28;19926;-87
2023/03/22 03:34:32;;;;;;;;;;;;;;;16.20;50.95;101082.75;5061952;28;19924;-87
2023/03/22 03:37:00;;;;;;;;;;;;;;;16.21;50.63;101095.19;5069940;28;19923;-87
2023/03/22 03:39:31;;;;;;;;;;;;;;;16.19;50.62;101091.97;5068960;28;19927;-86
2023/03/22 03:41:58;;;;;;;;;;;;;;;16.18;50.78;101089.53;5069628;28;19927;-86
2023/03/22 03:44:23;;;;;;;;;;;;;;;16.16;50.71;101092.53;5068311;28;19927;-86
2023/03/22 03:46:50;;;;;;;;;;;;;;;16.15;50.70;101092.75;5072527;28;19920;-87
2023/03/22 03:49:16;;;;;;;;;;;;;;;16.14;50.67;101088.44;5063557;28;19948;-86
2023/03/22 03:51:46;;;;;;;;;;;;;;;16.12;50.61;101094.13;5071844;28;20425;-87
2023/03/22 03:54:11;;;;;;;;;;;;;;;16.10;50.66;101092.78;5069884;28;20428;-87
2023/03/22 03:56:37;;;;;;;;;;;;;;;16.10;50.55;101088.19;5068204;28;19920;-87
2023/03/22 03:59:02;;;;;;;;;;;;;;;16.10;50.55;101092.78;5073265;28;19927;-86
2023/03/22 04:01:27;;;;;;;;;;;;;;;16.11;50.83;101084.41;5067790;28;20468;-87
2023/03/22 04:03:54;;;;;;;;;;;;;;;16.17;50.79;101082.50;5067908;28;19939;-87
2023/03/22 04:06:19;;;;;;;;;;;;;;;16.19;50.65;101073.03;5091485;28;19920;-85
2023/03/22 04:08:52;;;;;;;;;;;;;;;16.21;50.91;101070.88;5091795;28;19920;-85
2023/03/22 04:11:20;;;;;;;;;;;;;;;16.24;50.92;101069.50;5088520;28;20037;-85
2023/03/22 04:13:46;;;;;;;;;;;;;;;16.26;50.91;101067.31;5094682;28;19988;-85
2023/03/22 04:16:11;;;;;;;;;;;;;;;16.26;50.82;101065.41;5090836;28;19917;-84
2023/03/22 04:18:39;;;;;;;;;;;;;;;16.29;50.80;101074.88;5083711;28;19920;-85
2023/03/22 04:21:05;;;;;;;;;;;;;;;16.30;51.02;101076.47;5089499;28;19920;-85
2023/03/22 04:23:32;;;;;;;;;;;;;;;16.31;50.88;101072.69;5083720;28;19925;-84
2023/03/22 04:25:58;;;;;;;;;;;;;;;16.35;50.89;101078.38;5086224;28;19916;-85
2023/03/22 04:28:25;;;;;;;;;;;;;;;16.39;50.93;101084.84;5085064;28;19948;-85
2023/03/22 04:30:51;;;;;;;;;;;;;;;16.40;50.80;101075.63;5081137;28;19931;-85
2023/03/22 04:33:16;;;;;;;;;;;;;;;16.41;50.83;101077.25;5084128;28;19921;-85
2023/03/22 04:35:45;;;;;;;;;;;;;;;16.40;50.63;101076.44;5086432;28;19924;-85
2023/03/22 04:38:10;;;;;;;;;;;;;;;16.39;50.89;101077.53;5089647;28;19927;-85
2023/03/22 04:40:37;;;;;;;;;;;;;;;16.42;50.98;101073.47;5087958;28;19904;-85
2023/03/22 04:43:03;;;;;;;;;;;;;;;16.42;50.74;101068.84;5085991;28;20003;-85
2023/03/22 04:45:31;;;;;;;;;;;;;;;16.44;50.75;101076.69;5092728;28;19939;-85
2023/03/22 04:47:57;;;;;;;;;;;;;;;16.42;50.72;101070.75;5093441;28;19928;-85
2023/03/22 04:50:22;;;;;;;;;;;;;;;16.40;50.63;101064.81;5089714;28;19916;-85
2023/03/22 04:52:48;;;;;;;;;;;;;;;16.39;50.79;101068.63;5089851;28;19928;-85
2023/03/22 04:55:14;;;;;;;;;;;;;;;16.34;50.69;101055.94;5087313;28;19917;-85
2023/03/22 04:57:39;;;;;;;;;;;;;;;16.35;50.75;101068.38;5089867;28;19924;-85
2023/03/22 05:00:07;;;;;;;;;;;;;;;16.35;50.60;101068.38;5108862;28;19959;-85
2023/03/22 05:02:33;;;;;;;;;;;;;;;16.33;50.71;101078.63;5089691;28;20027;-85
2023/03/22 05:04:58;;;;;;;;;;;;;;;16.27;50.46;101080.56;5091215;28;19947;-85
2023/03/22 05:07:23;;;;;;;;;;;;;;;16.22;50.76;101077.88;5090122;28;19955;-85
2023/03/22 05:09:49;;;;;;;;;;;;;;;16.21;50.84;101075.47;5090514;28;19920;-85
2023/03/22 05:12:14;;;;;;;;;;;;;;;16.21;50.94;101072.75;5082603;28;19921;-85
2023/03/22 05:14:40;;;;;;;;;;;;;;;16.22;51.01;101063.56;5085587;28;19932;-85
2023/03/22 05:17:05;;;;;;;;;;;;;;;16.24;50.81;101069.50;5081864;28;19920;-85
2023/03/22 05:19:31;;;;;;;;;;;;;;;16.25;50.91;101071.09;5088605;28;19958;-85
2023/03/22 05:22:00;;;;;;;;;;;;;;;16.26;50.92;101064.63;5086325;28;19942;-85
2023/03/22 05:24:26;;;;;;;;;;;;;;;16.28;50.63;101062.44;5079555;28;19920;-85
2023/03/22 05:26:54;;;;;;;;;;;;;;;16.23;50.57;101055.16;5082257;28;19916;-85
2023/03/22 05:29:20;;;;;;;;;;;;;;;16.20;50.70;101054.91;5086766;28;19921;-85
2023/03/22 05:31:45;;;;;;;;;;;;;;;16.19;50.85;101056.00;5087335;28;19942;-85
2023/03/22 05:34:12;;;;;;;;;;;;;;;16.19;50.79;101053.31;5084022;28;19946;-85
2023/03/22 05:36:38;;;;;;;;;;;;;;;16.20;50.87;101047.63;5087238;28;19932;-85
2023/03/22 05:39:03;;;;;;;;;;;;;;;16.19;50.77;101048.72;5088318;28;19916;-85
2023/03/22 05:41:30;;;;;;;;;;;;;;;16.17;50.99;101045.47;5085014;28;19963;-85
2023/03/22 05:43:56;;;;;;;;;;;;;;;16.18;50.84;101049.00;5085651;28;19910;-85
2023/03/22 05:46:21;;;;;;;;;;;;;;;16.19;50.80;101045.19;5086788;28;19928;-85
2023/03/22 05:48:47;;;;;;;;;;;;;;;16.17;50.81;101056.28;5084234;28;19916;-85
2023/03/22 05:51:16;;;;;;;;;;;;;;;16.18;51.02;101054.41;5080217;28;19917;-85
2023/03/22 05:53:42;;;;;;;;;;;;;;;16.21;50.91;101051.13;5083950;28;20117;-85
2023/03/22 05:56:10;;;;;;;;;;;;;;;16.20;50.90;101044.09;5075437;28;19979;-85
2023/03/22 05:58:35;;;;;;;;;;;;;;;16.23;51.02;101048.94;5087390;28;19917;-85
2023/03/22 06:01:09;;;;;;;;;;;;;;;16.24;51.00;101047.88;5091741;28;19932;-85
2023/03/22 06:03:35;;;;;;;;;;;;;;;16.27;51.19;101044.59;5088505;28;19912;-85
2023/03/22 06:06:00;;;;;;;;;;;;;;;16.32;50.91;101042.66;5089096;28;19946;-85
2023/03/22 06:08:25;;;;;;;;;;;;;;;16.38;50.88;101046.16;5087752;28;19927;-85
2023/03/22 06:10:51;;;;;;;;;;;;;;;16.42;50.83;101030.19;5086192;28;20083;-84
2023/03/22 06:13:17;;;;;;;;;;;;;;;16.45;50.88;101040.44;5085155;28;19981;-85
2023/03/22 06:15:43;;;;;;;;;;;;;;;16.48;51.06;101032.56;5089960;28;19921;-85
2023/03/22 06:18:08;;;;;;;;;;;;;;;16.55;50.75;101035.78;5089067;28;19942;-85
2023/03/22 06:20:34;;;;;;;;;;;;;;;16.57;50.68;101032.81;5092762;28;19943;-85
2023/03/22 06:22:59;;;;;;;;;;;;;;;16.55;50.51;101029.56;5093665;28;19927;-84
2023/03/22 06:25:25;;;;;;;;;;;;;;;16.50;50.73;101027.69;5095294;28;19931;-85
2023/03/22 06:27:50;;;;;;;;;;;;;;;16.55;50.68;101029.56;5093964;28;19904;-85
2023/03/22 06:30:16;;;;;;;;;;;;;;;16.49;50.71;101031.47;5091041;28;19920;-85
2023/03/22 06:32:41;;;;;;;;;;;;;;;16.51;50.95;101040.13;5095549;28;19924;-84
2023/03/22 06:35:07;;;;;;;;;;;;;;;16.53;50.76;101034.47;5095632;28;19923;-84
2023/03/22 06:37:32;;;;;;;;;;;;;;;16.56;50.65;101036.59;5092402;28;19912;-85
2023/03/22 06:39:57;;;;;;;;;;;;;;;16.56;50.74;101034.69;5100441;28;19904;-85
2023/03/22 06:42:25;;;;;;;;;;;;;;;16.57;50.81;101035.50;5096276;28;19967;-85
2023/03/22 06:44:50;;;;;;;;;;;;;;;16.57;50.73;101039.03;5095305;28;19920;-85
2023/03/22 06:47:16;;;;;;;;;;;;;;;16.58;50.79;101039.81;5092814;28;19962;-84
2023/03/22 06:49:41;;;;;;;;;;;;;;;16.58;50.94;101045.22;5086218;28;19963;-85
2023/03/22 06:52:07;;;;;;;;;;;;;;;16.58;51.10;101046.03;5082909;28;19920;-84
2023/03/22 06:54:33;;;;;;;;;;;;;;;16.63;51.04;101043.28;5091884;28;20011;-85
2023/03/22 06:56:58;;;;;;;;;;;;;;;16.68;50.65;101038.97;5094362;28;19916;-85
2023/03/22 06:59:23;;;;;;;;;;;;;;;16.67;50.88;101045.47;5093927;28;19926;-84
2023/03/22 07:01:49;;;;;;;;;;;;;;;16.72;51.04;101048.97;5090615;28;19969;-84
2023/03/22 07:04:14;;;;;;;;;;;;;;;16.73;50.69;101045.16;5088644;28;19916;-84
2023/03/22 07:06:39;;;;;;;;;;;;;;;16.78;50.92;101036.19;5086167;28;20074;-84
2023/03/22 07:09:05;;;;;;;;;;;;;;;16.80;50.62;101047.53;5086682;28;19916;-84
2023/03/22 07:11:30;;;;;;;;;;;;;;;16.80;51.12;101044.84;5081735;28;19942;-84
2023/03/22 07:13:56;;;;;;;;;;;;;;;16.87;50.92;101037.19;5084154;28;19932;-85
2023/03/22 07:16:21;;;;;;;;;;;;;;;16.91;50.86;101047.19;5093803;28;20386;-85
2023/03/22 07:18:47;;;;;;;;;;;;;;;16.95;50.62;101042.00;5088139;28;19924;-84
2023/03/22 07:21:12;;;;;;;;;;;;;;;16.95;50.65;101043.91;5083074;28;19916;-84
2023/03/22 07:23:40;;;;;;;;;;;;;;;16.92;50.76;101054.22;5083085;28;19959;-84
2023/03/22 07:26:06;;;;;;;;;;;;;;;16.95;50.66;101052.03;5088517;28;19916;-84
2023/03/22 07:28:31;;;;;;;;;;;;;;;16.97;50.58;101042.53;5091763;28;19988;-84
2023/03/22 07:31:01;;;;;;;;;;;;;;;16.96;50.71;101032.81;5092767;28;20140;-84
2023/03/22 07:33:26;;;;;;;;;;;;;;;17.00;50.71;101044.66;5084799;28;19932;-84
2023/03/22 07:35:51;;;;;;;;;;;;;;;17.01;50.57;101038.16;5084190;28;19920;-84
2023/03/22 07:38:18;;;;;;;;;;;;;;;17.01;50.60;101040.88;5092357;28;19916;-84
2023/03/22 07:40:43;;;;;;;;;;;;;;;17.02;50.36;101036.25;5083277;28;19920;-84
2023/03/22 07:43:11;;;;;;;;;;;;;;;17.00;50.25;101036.56;5079748;28;19920;-84
2023/03/22 07:45:39;;;;;;;;;;;;;;;16.94;50.75;101040.41;5079313;28;19920;-84
2023/03/22 07:48:10;;;;;;;;;;;;;;;17.00;50.79;101035.75;5085137;28;19931;-84
2023/03/22 07:50:37;;;;;;;;;;;;;;;17.03;50.30;101035.16;5084479;28;19924;-83
2023/03/22 07:53:03;;;;;;;;;;;;;;;17.02;50.49;101028.13;5082075;28;19935;-84
2023/03/22 07:55:29;;;;;;;;;;;;;;;17.01;50.31;101027.34;5084911;28;19936;-84
2023/03/22 07:57:56;;;;;;;;;;;;;;;16.99;50.28;101032.22;5081284;28;19920;-84
2023/03/22 08:00:22;;;;;;;;;;;;;;;16.97;50.37;101026.28;5081399;28;19931;-84
2023/03/22 08:02:55;;;;;;;;;;;;;;;16.97;50.42;101026.28;5080367;28;19928;-84
2023/03/22 08:05:26;;;;;;;;;;;;;;;16.97;50.32;101017.38;5078970;28;19960;-84
2023/03/22 08:07:53;;;;;;;;;;;;;;;16.97;50.39;101020.88;5081950;28;19924;-84
2023/03/22 08:10:21;;;;;;;;;;;;;;;16.93;50.30;101014.44;5082668;28;19927;-84
2023/03/22 08:12:48;;;;;;;;;;;;;;;16.93;50.18;101011.72;5082182;28;19935;-84
2023/03/22 08:15:14;;;;;;;;;;;;;;;16.93;50.37;101009.00;5095451;28;19947;-84
2023/03/22 08:17:41;;;;;;;;;;;;;;;16.92;50.28;101007.41;5083089;28;19925;-84
2023/03/22 08:20:07;;;;;;;;;;;;;;;16.93;50.27;101003.59;5085633;28;19955;-84
2023/03/22 08:22:36;;;;;;;;;;;;;;;16.97;50.20;101004.63;5089007;28;19920;-83
2023/03/22 08:25:03;;;;;;;;;;;;;;;16.95;50.05;100998.72;5091703;28;19959;-84
2023/03/22 08:27:28;;;;;;;;;;;;;;;16.91;50.32;100986.84;5080875;28;19920;-84
2023/03/22 08:29:54;;;;;;;;;;;;;;;17.00;50.38;100995.13;5081657;28;19925;-84
2023/03/22 08:32:21;;;;;;;;;;;;;;;17.04;50.05;100983.44;5081148;28;19929;-84
2023/03/22 08:34:47;;;;;;;;;;;;;;;17.07;50.08;100988.31;5080129;28;20009;-83
2023/03/22 08:37:12;;;;;;;;;;;;;;;17.13;50.02;100986.38;5083323;28;19916;-83
2023/03/22 08:39:39;;;;;;;;;;;;;;;17.15;50.02;100990.41;5087319;28;19917;-84
2023/03/22 08:42:05;;;;;;;;;;;;;;;17.17;50.13;100992.81;5082598;28;19962;-84
2023/03/22 08:44:30;;;;;;;;;;;;;;;17.30;49.88;100988.63;5084901;28;19916;-84
2023/03/22 08:46:55;;;;;;;;;;;;;;;17.29;49.97;101000.56;5081096;28;19930;-84
2023/03/22 08:49:23;;;;;;;;;;;;;;;17.30;49.76;100985.94;5084092;28;19927;-83
2023/03/22 08:51:49;;;;;;;;;;;;;;;17.30;50.15;100988.63;5086427;28;19927;-84
2023/03/22 08:54:14;;;;;;;;;;;;;;;17.34;49.94;100992.38;5080007;28;19925;-84
2023/03/22 08:56:40;;;;;;;;;;;;;;;17.44;49.78;100986.84;5087887;28;20359;-83
2023/03/22 08:59:07;;;;;;;;;;;;;;;17.43;49.91;100987.97;5085562;28;19965;-84
2023/03/22 09:01:33;;;;;;;;;;;;;;;17.48;49.74;100990.59;5087486;28;19920;-84
2023/03/22 09:03:58;;;;;;;;;;;;;;;17.51;49.75;100984.59;5086210;28;20301;-84
2023/03/22 09:06:25;;;;;;;;;;;;;;;17.53;49.52;100982.41;5083500;28;20078;-83
2023/03/22 09:08:51;;;;;;;;;;;;;;;17.57;49.65;100982.63;5087684;28;19924;-84
2023/03/22 09:11:16;;;;;;;;;;;;;;;17.60;49.25;100980.19;5086193;28;20274;-84
2023/03/22 09:13:44;;;;;;;;;;;;;;;17.66;49.23;100979.00;5087820;28;20034;-84
2023/03/22 09:16:12;;;;;;;;;;;;;;;17.72;49.50;100983.28;5078650;28;19925;-84
2023/03/22 09:18:38;;;;;;;;;;;;;;;17.78;49.30;100979.44;5081436;28;19935;-84
2023/03/22 09:21:04;;;;;;;;;;;;;;;17.91;49.11;100971.66;5085451;28;19917;-84
2023/03/22 09:23:31;;;;;;;;;;;;;;;17.94;48.83;100977.31;5083879;28;19926;-84
2023/03/22 09:25:58;;;;;;;;;;;;;;;18.01;48.86;100980.50;5084062;28;19920;-84
2023/03/22 09:28:23;;;;;;;;;;;;;;;18.07;48.88;100973.88;5084530;28;19920;-84
2023/03/22 09:30:51;;;;;;;;;;;;;;;18.13;48.78;100971.91;5084199;28;20236;-83
2023/03/22 09:33:17;;;;;;;;;;;;;;;18.20;48.56;100972.34;5082054;28;19928;-85
2023/03/22 09:35:42;;;;;;;;;;;;;;;18.25;48.43;100971.47;5084402;28;19959;-84
2023/03/22 09:38:11;;;;;;;;;;;;;;;18.28;48.29;100968.97;5083152;28;20635;-84
2023/03/22 09:40:40;;;;;;;;;;;;;;;18.35;48.40;100969.44;5082732;28;19916;-84
2023/03/22 09:43:08;;;;;;;;;;;;;;;18.46;48.41;100967.34;5080672;28;19984;-84
2023/03/22 09:45:36;;;;;;;;;;;;;;;18.56;48.48;100967.19;5071780;28;20273;-85
2023/03/22 09:48:10;;;;;;;;;;;;;;;18.69;47.87;100968.38;5080411;28;19939;-84
2023/03/22 09:50:38;;;;;;;;;;;;;;;18.73;48.12;100955.81;5081547;28;19931;-84
2023/03/22 09:53:07;;;;;;;;;;;;;;;18.82;47.94;100961.38;5081690;28;19927;-84
2023/03/22 09:55:40;;;;;;;;;;;;;;;18.84;47.61;100959.97;5088277;28;19916;-84
2023/03/22 09:58:11;;;;;;;;;;;;;;;18.77;47.80;100967.69;5089797;28;19927;-84
2023/03/22 10:00:44;;;;;;;;;;;;;;;18.75;47.79;100961.75;5084659;28;19916;-84
2023/03/22 10:03:12;;;;;;;;;;;;;;;18.66;47.76;100968.97;5085548;28;19917;-84
2023/03/22 10:05:45;;;;;;;;;;;;;;;18.67;47.78;100965.13;5084782;28;19920;-84
2023/03/22 10:08:27;;;;;;;;;;;;;;;18.66;47.60;100969.75;5081258;28;19975;-83
2023/03/22 10:10:53;;;;;;;;;;;;;;;18.66;47.83;100958.09;5088822;28;19955;-83
2023/03/22 10:13:45;;;;;;;;;;;;;;;18.75;47.92;100953.63;5085866;28;19931;-84
2023/03/22 10:16:12;;;;;;;;;;;;;;;18.85;48.08;100948.03;5079471;28;19920;-83
2023/03/22 10:18:43;;;;;;;;;;;;;;;18.97;47.97;100955.66;5083038;28;20050;-84
2023/03/22 10:21:10;;;;;;;;;;;;;;;19.11;47.47;100955.69;5079967;28;19931;-83
2023/03/22 10:23:50;;;;;;;;;;;;;;;19.12;47.54;100943.72;5083090;28;19919;-84
2023/03/22 10:26:23;;;;;;;;;;;;;;;19.18;47.66;100937.88;5068616;28;20203;-83
2023/03/22 10:28:55;;;;;;;;;;;;;;;19.25;47.29;100932.06;5077633;28;19924;-83
2023/03/22 10:31:20;;;;;;;;;;;;;;;19.33;47.02;100934.06;5077781;28;19925;-84
2023/03/22 10:33:52;;;;;;;;;;;;;;;19.36;46.65;100928.03;5080897;28;19938;-83
2023/03/22 10:36:21;;;;;;;;;;;;;;;19.35;46.82;100926.44;5084275;28;19920;-83
2023/03/22 10:38:53;;;;;;;;;;;;;;;19.41;46.75;100924.44;5085109;28;19921;-84
2023/03/22 10:41:19;;;;;;;;;;;;;;;19.49;46.84;100913.66;5088773;28;19925;-83
2023/03/22 10:43:48;;;;;;;;;;;;;;;19.59;46.47;100921.63;5080354;28;19921;-84
2023/03/22 10:46:17;;;;;;;;;;;;;;;19.60;46.28;100917.81;5082562;28;19923;-83
2023/03/22 10:48:44;;;;;;;;;;;;;;;19.59;46.07;100913.47;5083319;28;19931;-84
2023/03/22 10:51:22;;;;;;;;;;;;;;;19.62;46.13;100914.78;5080181;28;20379;-84
2023/03/22 10:53:49;;;;;;;;;;;;;;;19.67;46.17;100916.56;5084426;28;19909;-84
2023/03/22 10:56:17;;;;;;;;;;;;;;;19.79;46.16;100923.09;5078572;28;19927;-84
2023/03/22 10:58:43;;;;;;;;;;;;;;;19.85;46.00;100919.16;5085577;28;20168;-83
2023/03/22 11:01:11;;;;;;;;;;;;;;;19.86;45.89;100914.53;5079692;28;19955;-83
2023/03/22 11:03:40;;;;;;;;;;;;;;;19.83;45.97;100915.13;5090862;28;19920;-83
2023/03/22 11:06:13;;;;;;;;;;;;;;;19.84;45.94;100914.81;5086411;28;19921;-83
2023/03/22 11:08:46;;;;;;;;;;;;;;;19.85;45.65;100907.47;5079292;28;19980;-83
2023/03/22 11:11:17;;;;;;;;;;;;;;;19.82;45.73;100898.03;5085755;28;19923;-83
2023/03/22 11:13:48;;;;;;;;;;;;;;;19.80;45.68;100889.38;5084056;28;19991;-83
2023/03/22 11:16:16;;;;;;;;;;;;;;;19.82;45.81;100878.19;5077354;28;19927;-84
2023/03/22 11:18:41;;;;;;;;;;;;;;;19.85;45.66;100878.38;5085186;28;21232;-83
2023/03/22 11:21:09;;;;;;;;;;;;;;;19.88;45.80;100879.66;5088357;28;19916;-83
2023/03/22 11:23:37;;;;;;;;;;;;;;;19.91;45.66;100874.41;5087545;28;19916;-83
2023/03/22 11:26:09;;;;;;;;;;;;;;;19.98;45.60;100874.00;5080338;28;20501;-83
2023/03/22 11:28:36;;;;;;;;;;;;;;;20.02;45.53;100872.28;5089323;28;19904;-83
2023/03/22 11:31:11;;;;;;;;;;;;;;;20.05;45.50;100873.56;5088510;28;19927;-82
2023/03/22 11:33:37;;;;;;;;;;;;;;;20.13;45.37;100881.81;5087600;28;19977;-83
2023/03/22 11:36:16;;;;;;;;;;;;;;;20.09;44.74;100866.41;5082543;28;19920;-83
2023/03/22 11:38:42;;;;;;;;;;;;;;;20.08;45.20;100865.59;5088464;28;19924;-83
2023/03/22 11:41:27;;;;;;;;;;;;;;;20.10;45.14;100857.13;5090974;28;19946;-83
2023/03/22 11:43:58;;;;;;;;;;;;;;;20.21;44.96;100851.13;5091284;28;19919;-83
2023/03/22 11:46:24;;;;;;;;;;;;;;;20.23;44.94;100840.75;5086672;28;19944;-83
2023/03/22 11:48:50;;;;;;;;;;;;;;;20.36;44.72;100840.97;5088150;28;19928;-83
2023/03/22 11:51:17;;;;;;;;;;;;;;;20.37;44.79;100835.22;5089248;28;19931;-83
2023/03/22 11:53:45;;;;;;;;;;;;;;;20.40;44.66;100831.06;5084578;28;19951;-83
2023/03/22 11:56:14;;;;;;;;;;;;;;;20.41;44.88;100832.72;5085319;28;19998;-83
2023/03/22 11:59:09;;;;;;;;;;;;;;;20.48;44.45;100833.88;5084694;28;19938;-83
2023/03/22 12:01:37;;;;;;;;;;;;;;;20.46;44.42;100840.75;5015753;28;19924;-83
2023/03/22 12:04:04;;;;;;;;;;;;;;;20.39;44.78;100837.63;5088679;28;19916;-83
2023/03/22 12:06:35;;;;;;;;;;;;;;;20.47;44.52;100828.75;5089423;28;19920;-83
2023/03/22 12:09:09;;;;;;;;;;;;;;;20.47;44.88;100832.28;5086180;28;19952;-83
2023/03/22 12:11:38;;;;;;;;;;;;;;;20.58;44.36;100832.81;5090781;28;19915;-83
2023/03/22 12:14:05;;;;;;;;;;;;;;;20.63;44.22;100829.94;5089315;28;19932;-83
2023/03/22 12:16:35;;;;;;;;;;;;;;;20.70;43.73;100833.03;5090279;28;19927;-83
2023/03/22 12:19:21;;;;;;;;;;;;;;;20.61;43.79;100817.75;5085970;28;19924;-83
2023/03/22 12:21:47;;;;;;;;;;;;;;;20.60;44.47;100810.72;5084823;28;19950;-83
2023/03/22 12:24:31;;;;;;;;;;;;;;;20.75;44.30;100810.28;5088722;28;19999;-83
2023/03/22 12:27:03;;;;;;;;;;;;;;;20.92;44.24;100807.63;5089748;28;19956;-83
2023/03/22 12:29:32;;;;;;;;;;;;;;;21.00;43.92;100806.03;5090890;28;20019;-83
2023/03/22 12:31:58;;;;;;;;;;;;;;;20.95;43.92;100814.38;5087370;28;19920;-83
2023/03/22 12:34:27;;;;;;;;;;;;;;;20.95;43.73;100803.47;5086593;28;19932;-83
2023/03/22 12:36:54;;;;;;;;;;;;;;;20.91;43.88;100802.50;5085999;28;19920;-83
2023/03/22 12:39:23;;;;;;;;;;;;;;;20.97;43.70;100804.75;5086467;28;20014;-83